Погода Шапочкинона 2 недели

Тверская область, Россия

23 мая-05 июня
  • 23мая
    Сегодня
    +8°
    +22°
    Ясно и безоблачно
    ВремяПогодаТемператураВлажностьДавлениеВетер, м/сВероятность осадков
    00:00Ясно и безоблачно+11°C57 %749 мм3.2 м/с2 %
    03:00Ясно и безоблачно+9°C63 %750 мм3.1 м/с2 %
    06:00Ясно и безоблачно+9°C67 %751 мм2.9 м/с2 %
    09:00Ясно и безоблачно+17°C53 %752 мм2.5 м/с2 %
    12:00Ясно и безоблачно+21°C35 %752 мм3.4 м/с2 %
    15:00Ясно и безоблачно+22°C35 %752 мм3.2 м/с2 %
    18:00Ясно и безоблачно+22°C36 %752 мм3.3 м/с2 %
    21:00Ясно и безоблачно+16°C56 %752 мм2.3 м/с2 %
  • 24мая
    Пятница
    +6°
    +22°
    Ясно и безоблачно
    ВремяПогодаТемператураВлажностьДавлениеВетер, м/сВероятность осадков
    00:00Ясно и безоблачно+10°C65 %753 мм2.3 м/с2 %
    03:00Небольшая облачность+9°C70 %754 мм2.0 м/с2 %
    06:00Ясно и безоблачно+9°C70 %755 мм2.4 м/с2 %
    09:00Ясно и безоблачно+17°C49 %756 мм2.6 м/с2 %
    12:00Ясно и безоблачно+20°C37 %756 мм3.2 м/с2 %
    15:00Ясно и безоблачно+22°C34 %755 мм3.9 м/с2 %
    18:00Ясно и безоблачно+22°C34 %754 мм3.6 м/с2 %
    21:00Ясно и безоблачно+16°C52 %754 мм2.7 м/с2 %
  • 25мая
    Суббота
    +8°
    +24°
    Ясно и безоблачно
    ВремяПогодаТемператураВлажностьДавлениеВетер, м/сВероятность осадков
    00:00Ясно и безоблачно+10°C62 %753 мм2.9 м/с2 %
    03:00Ясно и безоблачно+7°C60 %754 мм2.7 м/с2 %
    06:00Ясно и безоблачно+8°C69 %753 мм2.9 м/с2 %
    09:00Ясно и безоблачно+17°C52 %753 мм3.0 м/с2 %
    12:00Ясно и безоблачно+21°C38 %753 мм2.9 м/с2 %
    15:00Ясно и безоблачно+23°C35 %752 мм3.0 м/с2 %
    18:00Ясно и безоблачно+24°C36 %751 мм3.1 м/с2 %
    21:00Ясно и безоблачно+18°C60 %750 мм2.2 м/с2 %
  • 26мая
    Воскресенье
    +11°
    +27°
    Облачно с прояснениями
    ВремяПогодаТемператураВлажностьДавлениеВетер, м/сВероятность осадков
    00:00Ясно и безоблачно+11°C73 %750 мм2.2 м/с2 %
    03:00Ясно и безоблачно+9°C81 %749 мм2.1 м/с2 %
    06:00Ясно и безоблачно+12°C74 %750 мм2.2 м/с2 %
    09:00Ясно и безоблачно+21°C51 %750 мм2.0 м/с2 %
    12:00Облачно с прояснениями+25°C39 %750 мм2.7 м/с16 %
    15:00Облачно с прояснениями+25°C52 %750 мм3.6 м/с41 %
    18:00Небольшая облачность и лёгкий дождик+23°C67 %750 мм3.1 м/с52 %
    21:00Практически безоблачно+19°C83 %751 мм1.7 м/с30 %
  • 27мая
    Понедельник
    +11°
    +24°
    Практически безоблачно
    ВремяПогодаТемператураВлажностьДавлениеВетер, м/сВероятность осадков
    00:00Ясно и безоблачно+14°C89 %751 мм2.5 м/с2 %
    03:00Ясно и безоблачно+13°C75 %752 мм3.6 м/с2 %
    06:00Ясно и безоблачно+11°C70 %753 мм2.7 м/с2 %
    09:00Ясно и безоблачно+19°C56 %753 мм2.7 м/с2 %
    12:00Ясно и безоблачно+22°C40 %753 мм2.9 м/с10 %
    15:00Практически безоблачно+24°C35 %753 мм2.3 м/с12 %
    18:00Ясно и безоблачно+23°C36 %752 мм2.0 м/с10 %
    21:00Ясно и безоблачно+19°C59 %752 мм2.4 м/с3 %
Мы используем cookies
Соглашаюсь